OMD241 KOPF-KROW
Flight info
| Callsign | OMD241 |
|---|---|
| Flight time | 3h 48m |
| Altitude | 34000 |
| Route | HURCN4 SMELZ Q116 JAWJA MUURY MARVE NOBBL/N0469F360 DOLEY ETICO MTBLL |
| Aircraft | B752/M-SDE2E3FGHIJ3J4J7RWXY/LB1 |
Departure
| Time | 2026-05-07 18:11 |
|---|---|
| Airport | Miami-Opa Locka Executive Airport (KOPF) |
Arrival
| Time | 2026-05-07 21:59 |
|---|---|
| Airport | Roswell Air Center Airport (KROW) |
| Time | Latitude | Longitude | Altitude | Speed | Heading |
|---|---|---|---|---|---|
| 2026-05-07 17:50 | 25.90876 | -80.26639 | 20 ft | 0 kts | 180° |
| 2026-05-07 17:59 | 25.90877 | -80.26639 | 20 ft | 1 kts | 180° |
| 2026-05-07 17:59 | 25.90889 | -80.26639 | 20 ft | 2 kts | 178° |
| 2026-05-07 17:59 | 25.90908 | -80.26643 | 20 ft | 3 kts | 153° |
| 2026-05-07 17:59 | 25.90923 | -80.26657 | 20 ft | 3 kts | 127° |
| 2026-05-07 18:00 | 25.90924 | -80.26658 | 20 ft | 0 kts | 127° |
| 2026-05-07 18:01 | 25.90919 | -80.26650 | 20 ft | 4 kts | 124° |
| 2026-05-07 18:01 | 25.90912 | -80.26600 | 20 ft | 9 kts | 90° |
| 2026-05-07 18:01 | 25.90915 | -80.26541 | 20 ft | 5 kts | 59° |
| 2026-05-07 18:02 | 25.90997 | -80.26532 | 20 ft | 9 kts | 1° |
| 2026-05-07 18:02 | 25.91068 | -80.26531 | 20 ft | 11 kts | 0° |
| 2026-05-07 18:02 | 25.91152 | -80.26532 | 20 ft | 9 kts | 359° |
| 2026-05-07 18:03 | 25.91178 | -80.26568 | 20 ft | 7 kts | 265° |
| 2026-05-07 18:03 | 25.91174 | -80.26635 | 20 ft | 10 kts | 267° |
| 2026-05-07 18:03 | 25.91170 | -80.26723 | 20 ft | 13 kts | 266° |
| 2026-05-07 18:03 | 25.91164 | -80.26833 | 20 ft | 15 kts | 267° |
| 2026-05-07 18:04 | 25.91158 | -80.26955 | 20 ft | 16 kts | 267° |
| 2026-05-07 18:04 | 25.91153 | -80.27079 | 20 ft | 16 kts | 267° |
| 2026-05-07 18:04 | 25.91147 | -80.27198 | 20 ft | 15 kts | 265° |
| 2026-05-07 18:04 | 25.91141 | -80.27313 | 20 ft | 15 kts | 267° |
| 2026-05-07 18:05 | 25.91136 | -80.27425 | 20 ft | 14 kts | 267° |
| 2026-05-07 18:05 | 25.91132 | -80.27533 | 20 ft | 14 kts | 269° |
| 2026-05-07 18:05 | 25.91127 | -80.27638 | 20 ft | 13 kts | 266° |
| 2026-05-07 18:05 | 25.91121 | -80.27739 | 20 ft | 13 kts | 266° |
| 2026-05-07 18:06 | 25.91116 | -80.27837 | 20 ft | 13 kts | 267° |
| 2026-05-07 18:06 | 25.91111 | -80.27933 | 20 ft | 12 kts | 267° |
| 2026-05-07 18:06 | 25.91107 | -80.28027 | 20 ft | 12 kts | 267° |
| 2026-05-07 18:06 | 25.91103 | -80.28122 | 20 ft | 13 kts | 267° |
| 2026-05-07 18:07 | 25.91097 | -80.28229 | 20 ft | 15 kts | 266° |
| 2026-05-07 18:07 | 25.91091 | -80.28350 | 20 ft | 17 kts | 267° |
| 2026-05-07 18:07 | 25.91085 | -80.28487 | 20 ft | 19 kts | 266° |
| 2026-05-07 18:07 | 25.91080 | -80.28600 | 20 ft | 13 kts | 268° |
| 2026-05-07 18:08 | 25.91084 | -80.28679 | 20 ft | 9 kts | 293° |
| 2026-05-07 18:08 | 25.91118 | -80.28741 | 20 ft | 10 kts | 299° |
| 2026-05-07 18:08 | 25.91130 | -80.28793 | 20 ft | 7 kts | 284° |
| 2026-05-07 18:08 | 25.91162 | -80.28825 | 20 ft | 6 kts | 343° |
| 2026-05-07 18:09 | 25.91208 | -80.28829 | 20 ft | 7 kts | 358° |
| 2026-05-07 18:09 | 25.91256 | -80.28829 | 20 ft | 6 kts | 19° |
| 2026-05-07 18:09 | 25.91269 | -80.28799 | 20 ft | 2 kts | 87° |
| 2026-05-07 18:09 | 25.91270 | -80.28799 | 20 ft | 0 kts | 87° |
| 2026-05-07 18:10 | 25.91278 | -80.28606 | 20 ft | 58 kts | 87° |
| 2026-05-07 18:10 | 25.91313 | -80.27883 | 20 ft | 128 kts | 87° |
| 2026-05-07 18:10 | 25.91372 | -80.26646 | 79 ft | 186 kts | 86° |
| 2026-05-07 18:11 | 25.91443 | -80.25153 | 902 ft | 198 kts | 87° |
| 2026-05-07 18:11 | 25.91491 | -80.24126 | 1507 ft | 204 kts | 88° |
| 2026-05-07 18:11 | 25.91618 | -80.22010 | 2285 ft | 205 kts | 82° |
| 2026-05-07 18:11 | 25.91965 | -80.20460 | 2900 ft | 208 kts | 76° |
| 2026-05-07 18:12 | 25.92385 | -80.18918 | 3498 ft | 209 kts | 74° |
| 2026-05-07 18:12 | 25.92816 | -80.17391 | 4089 ft | 212 kts | 73° |
| 2026-05-07 18:12 | 25.93274 | -80.15792 | 4706 ft | 223 kts | 72° |
| 2026-05-07 18:12 | 25.94094 | -80.14308 | 5273 ft | 233 kts | 46° |
| 2026-05-07 18:13 | 25.95568 | -80.13500 | 5891 ft | 244 kts | 13° |
| 2026-05-07 18:13 | 25.97261 | -80.13690 | 6505 ft | 250 kts | 341° |
| 2026-05-07 18:13 | 25.98658 | -80.14793 | 7142 ft | 252 kts | 316° |
| 2026-05-07 18:13 | 25.99825 | -80.16329 | 7760 ft | 264 kts | 307° |
| 2026-05-07 18:14 | 26.00898 | -80.17980 | 8354 ft | 269 kts | 305° |
| 2026-05-07 18:14 | 26.01970 | -80.19718 | 8961 ft | 276 kts | 304° |
| 2026-05-07 18:14 | 26.03111 | -80.21455 | 9564 ft | 281 kts | 308° |
| 2026-05-07 18:14 | 26.04378 | -80.23141 | 10170 ft | 286 kts | 310° |
| 2026-05-07 18:15 | 26.05671 | -80.24852 | 10776 ft | 291 kts | 310° |
| 2026-05-07 18:15 | 26.07006 | -80.26631 | 11394 ft | 311 kts | 309° |
| 2026-05-07 18:15 | 26.08443 | -80.28554 | 12015 ft | 335 kts | 309° |
| 2026-05-07 18:15 | 26.09946 | -80.30584 | 12621 ft | 343 kts | 309° |
| 2026-05-07 18:16 | 26.11473 | -80.32654 | 13227 ft | 349 kts | 309° |
| 2026-05-07 18:16 | 26.13024 | -80.34761 | 13832 ft | 354 kts | 309° |
| 2026-05-07 18:16 | 26.14587 | -80.36884 | 14439 ft | 357 kts | 309° |
| 2026-05-07 18:16 | 26.16168 | -80.39032 | 15038 ft | 359 kts | 309° |
| 2026-05-07 18:17 | 26.17758 | -80.41197 | 15645 ft | 361 kts | 309° |
| 2026-05-07 18:17 | 26.19332 | -80.43341 | 16240 ft | 363 kts | 309° |
| 2026-05-07 18:17 | 26.20931 | -80.45522 | 16844 ft | 365 kts | 309° |
| 2026-05-07 18:17 | 26.22537 | -80.47715 | 17449 ft | 366 kts | 309° |
| 2026-05-07 18:18 | 26.24155 | -80.49921 | 18056 ft | 368 kts | 309° |
| 2026-05-07 18:18 | 26.25773 | -80.52133 | 18657 ft | 370 kts | 309° |
| 2026-05-07 18:18 | 26.27401 | -80.54363 | 19259 ft | 372 kts | 308° |
| 2026-05-07 18:18 | 26.29044 | -80.56608 | 19862 ft | 374 kts | 308° |
| 2026-05-07 18:19 | 26.30698 | -80.58860 | 20465 ft | 377 kts | 308° |
| 2026-05-07 18:19 | 26.32364 | -80.61134 | 21076 ft | 379 kts | 308° |
| 2026-05-07 18:19 | 26.34032 | -80.63428 | 21690 ft | 382 kts | 308° |
| 2026-05-07 18:19 | 26.35690 | -80.65706 | 22286 ft | 384 kts | 308° |
| 2026-05-07 18:20 | 26.37386 | -80.68032 | 22890 ft | 387 kts | 308° |
| 2026-05-07 18:20 | 26.39095 | -80.70370 | 23492 ft | 390 kts | 307° |
| 2026-05-07 18:20 | 26.40845 | -80.72701 | 24095 ft | 393 kts | 309° |
| 2026-05-07 18:20 | 26.42692 | -80.74975 | 24675 ft | 398 kts | 310° |
| 2026-05-07 18:21 | 26.43944 | -80.76479 | 25046 ft | 400 kts | 310° |
| 2026-05-07 18:21 | 26.45847 | -80.78761 | 25600 ft | 403 kts | 310° |
| 2026-05-07 18:21 | 26.47763 | -80.81052 | 26161 ft | 404 kts | 310° |
| 2026-05-07 18:21 | 26.49683 | -80.83362 | 26717 ft | 407 kts | 310° |
| 2026-05-07 18:22 | 26.51609 | -80.85690 | 27270 ft | 409 kts | 310° |
| 2026-05-07 18:22 | 26.52888 | -80.87241 | 27635 ft | 410 kts | 310° |
| 2026-05-07 18:22 | 26.55487 | -80.90396 | 28375 ft | 413 kts | 310° |
| 2026-05-07 18:22 | 26.57436 | -80.92763 | 28926 ft | 415 kts | 310° |
| 2026-05-07 18:23 | 26.59396 | -80.95143 | 29477 ft | 417 kts | 310° |
| 2026-05-07 18:23 | 26.61368 | -80.97536 | 30005 ft | 420 kts | 310° |
| 2026-05-07 18:23 | 26.63355 | -80.99943 | 30511 ft | 423 kts | 310° |
| 2026-05-07 18:23 | 26.65361 | -81.02370 | 31014 ft | 425 kts | 310° |
| 2026-05-07 18:24 | 26.67372 | -81.04803 | 31509 ft | 426 kts | 310° |
| 2026-05-07 18:24 | 26.69384 | -81.07236 | 31970 ft | 426 kts | 310° |
| 2026-05-07 18:24 | 26.71401 | -81.09678 | 32423 ft | 426 kts | 310° |
| 2026-05-07 18:24 | 26.73379 | -81.12077 | 32867 ft | 425 kts | 310° |
| 2026-05-07 18:25 | 26.75376 | -81.14505 | 33312 ft | 424 kts | 310° |
| 2026-05-07 18:25 | 26.77376 | -81.16944 | 33633 ft | 425 kts | 310° |
| 2026-05-07 18:25 | 26.79378 | -81.19383 | 33874 ft | 426 kts | 310° |
| 2026-05-07 18:25 | 26.81379 | -81.21823 | 34009 ft | 425 kts | 310° |
| 2026-05-07 18:26 | 26.83377 | -81.24263 | 34065 ft | 425 kts | 310° |
| 2026-05-07 18:26 | 26.87385 | -81.29166 | 34073 ft | 427 kts | 309° |
| 2026-05-07 18:27 | 26.91396 | -81.34084 | 34073 ft | 427 kts | 309° |
| 2026-05-07 18:27 | 26.95415 | -81.39011 | 34082 ft | 428 kts | 309° |
| 2026-05-07 18:28 | 26.99404 | -81.43910 | 34082 ft | 428 kts | 309° |
| 2026-05-07 18:28 | 27.03417 | -81.48847 | 34088 ft | 428 kts | 309° |
| 2026-05-07 18:29 | 27.07949 | -81.53190 | 34105 ft | 434 kts | 322° |
| 2026-05-07 18:29 | 27.13091 | -81.56792 | 34095 ft | 435 kts | 324° |
| 2026-05-07 18:30 | 27.18228 | -81.60392 | 34087 ft | 434 kts | 323° |
| 2026-05-07 18:30 | 27.22998 | -81.63794 | 34082 ft | 434 kts | 323° |
| 2026-05-07 18:31 | 27.26559 | -81.66354 | 34081 ft | 434 kts | 323° |
| 2026-05-07 18:31 | 27.31631 | -81.70027 | 34077 ft | 434 kts | 323° |
| 2026-05-07 18:32 | 27.36700 | -81.73708 | 34076 ft | 433 kts | 322° |
| 2026-05-07 18:32 | 27.41768 | -81.77391 | 34079 ft | 433 kts | 322° |
| 2026-05-07 18:33 | 27.46887 | -81.80984 | 34081 ft | 436 kts | 327° |
| 2026-05-07 18:33 | 27.52474 | -81.83771 | 34081 ft | 440 kts | 332° |
| 2026-05-07 18:34 | 27.58095 | -81.86401 | 34077 ft | 440 kts | 332° |
| 2026-05-07 18:34 | 27.63724 | -81.89106 | 34076 ft | 439 kts | 331° |
| 2026-05-07 18:35 | 27.69341 | -81.91825 | 34073 ft | 439 kts | 331° |
| 2026-05-07 18:35 | 27.74953 | -81.94555 | 34083 ft | 439 kts | 331° |
| 2026-05-07 18:36 | 27.79056 | -81.96565 | 34079 ft | 439 kts | 331° |
| 2026-05-07 18:36 | 27.83400 | -81.98695 | 34075 ft | 439 kts | 331° |
| 2026-05-07 18:37 | 27.89011 | -82.01447 | 34077 ft | 439 kts | 331° |
| 2026-05-07 18:37 | 27.94615 | -82.04199 | 34079 ft | 439 kts | 331° |
| 2026-05-07 18:38 | 28.00185 | -82.06937 | 34079 ft | 439 kts | 331° |
| 2026-05-07 18:38 | 28.05790 | -82.09695 | 34079 ft | 439 kts | 331° |
| 2026-05-07 18:39 | 28.11192 | -82.12802 | 34082 ft | 431 kts | 321° |
| 2026-05-07 18:39 | 28.15985 | -82.16803 | 34082 ft | 430 kts | 318° |
| 2026-05-07 18:40 | 28.20808 | -82.20832 | 34079 ft | 430 kts | 319° |
| 2026-05-07 18:40 | 28.25676 | -82.24791 | 34080 ft | 430 kts | 320° |
| 2026-05-07 18:41 | 28.30578 | -82.28729 | 34079 ft | 431 kts | 320° |
| 2026-05-07 18:41 | 28.35435 | -82.32630 | 34077 ft | 430 kts | 319° |
| 2026-05-07 18:42 | 28.40324 | -82.36553 | 34078 ft | 430 kts | 319° |
| 2026-05-07 18:42 | 28.45220 | -82.40475 | 34079 ft | 430 kts | 319° |
| 2026-05-07 18:43 | 28.50118 | -82.44387 | 34083 ft | 430 kts | 319° |
| 2026-05-07 18:43 | 28.55006 | -82.48316 | 34080 ft | 430 kts | 319° |
| 2026-05-07 18:44 | 28.59885 | -82.52249 | 34083 ft | 429 kts | 319° |
| 2026-05-07 18:44 | 28.64758 | -82.56192 | 34086 ft | 429 kts | 319° |
| 2026-05-07 18:45 | 28.69600 | -82.60109 | 34086 ft | 429 kts | 319° |
| 2026-05-07 18:45 | 28.74466 | -82.64050 | 34086 ft | 429 kts | 319° |
| 2026-05-07 18:46 | 28.79334 | -82.67987 | 34087 ft | 429 kts | 319° |
| 2026-05-07 18:46 | 28.84212 | -82.71925 | 34088 ft | 428 kts | 319° |
| 2026-05-07 18:47 | 28.89078 | -82.75848 | 34088 ft | 428 kts | 318° |
| 2026-05-07 18:47 | 28.93931 | -82.79795 | 34087 ft | 428 kts | 318° |
| 2026-05-07 18:48 | 28.98748 | -82.83718 | 34087 ft | 428 kts | 318° |
| 2026-05-07 18:48 | 29.03592 | -82.87669 | 34086 ft | 428 kts | 318° |
| 2026-05-07 18:49 | 29.08430 | -82.91615 | 34084 ft | 427 kts | 318° |
| 2026-05-07 18:49 | 29.13267 | -82.95571 | 34087 ft | 427 kts | 318° |
| 2026-05-07 18:50 | 29.18108 | -82.99535 | 34083 ft | 427 kts | 317° |
| 2026-05-07 18:50 | 29.22951 | -83.03493 | 34082 ft | 427 kts | 318° |
| 2026-05-07 18:51 | 29.27785 | -83.07438 | 34081 ft | 427 kts | 317° |
| 2026-05-07 18:51 | 29.32631 | -83.11388 | 34081 ft | 427 kts | 317° |
| 2026-05-07 18:52 | 29.37436 | -83.15330 | 34080 ft | 427 kts | 317° |
| 2026-05-07 18:52 | 29.42253 | -83.19295 | 34079 ft | 426 kts | 317° |
| 2026-05-07 18:53 | 29.47081 | -83.23276 | 34079 ft | 426 kts | 317° |
| 2026-05-07 18:53 | 29.51902 | -83.27259 | 34085 ft | 426 kts | 317° |
| 2026-05-07 18:54 | 29.56692 | -83.31212 | 34082 ft | 426 kts | 317° |
| 2026-05-07 18:54 | 29.61502 | -83.35188 | 34079 ft | 426 kts | 317° |
| 2026-05-07 18:55 | 29.66329 | -83.39170 | 34078 ft | 426 kts | 317° |
| 2026-05-07 18:55 | 29.71154 | -83.43139 | 34078 ft | 426 kts | 317° |
| 2026-05-07 18:56 | 29.75972 | -83.47126 | 34077 ft | 426 kts | 316° |
| 2026-05-07 18:56 | 29.80779 | -83.51121 | 34076 ft | 426 kts | 316° |
| 2026-05-07 18:57 | 29.85581 | -83.55119 | 34074 ft | 426 kts | 316° |
| 2026-05-07 18:57 | 29.88833 | -83.57824 | 34073 ft | 426 kts | 316° |
| 2026-05-07 18:58 | 29.93613 | -83.61808 | 34072 ft | 426 kts | 316° |
| 2026-05-07 18:58 | 29.98413 | -83.65812 | 34071 ft | 425 kts | 316° |
| 2026-05-07 18:59 | 30.03213 | -83.69820 | 34070 ft | 426 kts | 316° |
| 2026-05-07 18:59 | 30.08015 | -83.73825 | 34069 ft | 426 kts | 316° |
| 2026-05-07 19:00 | 30.12784 | -83.77800 | 34073 ft | 426 kts | 316° |
| 2026-05-07 19:00 | 30.17093 | -83.82276 | 34050 ft | 406 kts | 296° |
| 2026-05-07 19:00 | 30.18140 | -83.85238 | 34057 ft | 396 kts | 282° |
| 2026-05-07 19:01 | 30.18716 | -83.88349 | 34060 ft | 396 kts | 277° |
| 2026-05-07 19:01 | 30.19424 | -83.93156 | 34041 ft | 395 kts | 276° |
| 2026-05-07 19:02 | 30.20374 | -83.99413 | 34033 ft | 394 kts | 277° |
| 2026-05-07 19:02 | 30.21355 | -84.05616 | 34031 ft | 394 kts | 277° |
| 2026-05-07 19:03 | 30.22364 | -84.11849 | 34031 ft | 394 kts | 277° |
| 2026-05-07 19:03 | 30.23378 | -84.18083 | 34030 ft | 394 kts | 277° |
| 2026-05-07 19:04 | 30.24394 | -84.24324 | 34030 ft | 394 kts | 277° |
| 2026-05-07 19:04 | 30.25415 | -84.30543 | 34030 ft | 394 kts | 277° |
| 2026-05-07 19:05 | 30.26443 | -84.36760 | 34030 ft | 394 kts | 277° |
| 2026-05-07 19:05 | 30.27448 | -84.42942 | 34033 ft | 393 kts | 277° |
| 2026-05-07 19:06 | 30.28451 | -84.49171 | 34035 ft | 393 kts | 277° |
| 2026-05-07 19:06 | 30.29942 | -84.58505 | 34035 ft | 393 kts | 277° |
| 2026-05-07 19:07 | 30.30922 | -84.64686 | 34031 ft | 392 kts | 277° |
| 2026-05-07 19:07 | 30.31906 | -84.70889 | 34046 ft | 392 kts | 277° |
| 2026-05-07 19:08 | 30.32892 | -84.77110 | 34048 ft | 392 kts | 277° |
| 2026-05-07 19:08 | 30.33716 | -84.82280 | 34046 ft | 392 kts | 277° |
| 2026-05-07 19:09 | 30.34715 | -84.88479 | 34047 ft | 392 kts | 277° |
| 2026-05-07 19:09 | 30.35702 | -84.94688 | 34042 ft | 391 kts | 276° |
| 2026-05-07 19:10 | 30.36675 | -85.00891 | 34038 ft | 391 kts | 276° |
| 2026-05-07 19:10 | 30.37640 | -85.07084 | 34037 ft | 391 kts | 276° |
| 2026-05-07 19:11 | 30.38593 | -85.13244 | 34030 ft | 391 kts | 276° |
| 2026-05-07 19:11 | 30.39551 | -85.19440 | 34026 ft | 391 kts | 276° |
| 2026-05-07 19:12 | 30.40509 | -85.25638 | 34026 ft | 391 kts | 276° |
| 2026-05-07 19:12 | 30.41464 | -85.31840 | 34020 ft | 391 kts | 276° |
| 2026-05-07 19:13 | 30.42420 | -85.38043 | 34024 ft | 390 kts | 276° |
| 2026-05-07 19:13 | 30.43379 | -85.44233 | 34014 ft | 390 kts | 276° |
| 2026-05-07 19:14 | 30.44336 | -85.50385 | 33999 ft | 390 kts | 276° |
| 2026-05-07 19:14 | 30.45287 | -85.56574 | 33996 ft | 390 kts | 276° |
| 2026-05-07 19:15 | 30.46085 | -85.61833 | 33992 ft | 390 kts | 276° |
| 2026-05-07 19:15 | 30.47011 | -85.67946 | 33990 ft | 390 kts | 276° |
| 2026-05-07 19:16 | 30.47949 | -85.74164 | 33991 ft | 391 kts | 276° |
| 2026-05-07 19:16 | 30.48879 | -85.80366 | 34003 ft | 391 kts | 276° |
| 2026-05-07 19:17 | 30.49809 | -85.86577 | 33993 ft | 391 kts | 276° |
| 2026-05-07 19:17 | 30.50730 | -85.92754 | 33993 ft | 391 kts | 276° |
| 2026-05-07 19:18 | 30.51655 | -85.98979 | 33995 ft | 391 kts | 276° |
| 2026-05-07 19:18 | 30.52575 | -86.05192 | 33998 ft | 391 kts | 276° |
| 2026-05-07 19:19 | 30.53494 | -86.11406 | 34000 ft | 390 kts | 276° |
| 2026-05-07 19:19 | 30.54417 | -86.17610 | 34003 ft | 390 kts | 276° |
| 2026-05-07 19:20 | 30.55344 | -86.23806 | 34005 ft | 390 kts | 276° |
| 2026-05-07 19:20 | 30.56104 | -86.28918 | 34006 ft | 389 kts | 276° |
| 2026-05-07 19:21 | 30.57011 | -86.35116 | 34006 ft | 389 kts | 275° |
| 2026-05-07 19:21 | 30.57909 | -86.41302 | 34005 ft | 389 kts | 275° |
| 2026-05-07 19:22 | 30.58656 | -86.46454 | 34006 ft | 388 kts | 275° |
| 2026-05-07 19:22 | 30.59423 | -86.51776 | 34008 ft | 388 kts | 275° |
| 2026-05-07 19:23 | 30.60035 | -86.56034 | 34007 ft | 388 kts | 275° |
| 2026-05-07 19:23 | 30.60919 | -86.62205 | 34005 ft | 388 kts | 275° |
| 2026-05-07 19:24 | 30.61801 | -86.68377 | 34003 ft | 387 kts | 275° |
| 2026-05-07 19:24 | 30.62683 | -86.74552 | 34004 ft | 387 kts | 275° |
| 2026-05-07 19:25 | 30.63558 | -86.80723 | 34006 ft | 387 kts | 275° |
| 2026-05-07 19:25 | 30.64422 | -86.86811 | 34008 ft | 386 kts | 275° |
| 2026-05-07 19:26 | 30.65304 | -86.93000 | 34006 ft | 386 kts | 275° |
| 2026-05-07 19:26 | 30.66186 | -86.99155 | 34003 ft | 386 kts | 275° |
| 2026-05-07 19:27 | 30.67063 | -87.05311 | 34000 ft | 386 kts | 275° |
| 2026-05-07 19:27 | 30.67920 | -87.11425 | 34005 ft | 386 kts | 275° |
| 2026-05-07 19:28 | 30.68782 | -87.17609 | 34004 ft | 385 kts | 275° |
| 2026-05-07 19:28 | 30.69628 | -87.23721 | 34004 ft | 385 kts | 275° |
| 2026-05-07 19:29 | 30.70476 | -87.29864 | 34005 ft | 385 kts | 275° |
| 2026-05-07 19:29 | 30.71322 | -87.36017 | 34005 ft | 385 kts | 275° |
| 2026-05-07 19:30 | 30.72165 | -87.42166 | 34003 ft | 385 kts | 275° |
| 2026-05-07 19:30 | 30.73004 | -87.48316 | 34004 ft | 385 kts | 275° |
| 2026-05-07 19:31 | 30.73836 | -87.54425 | 34005 ft | 385 kts | 275° |
| 2026-05-07 19:31 | 30.74668 | -87.60571 | 34006 ft | 385 kts | 275° |
| 2026-05-07 19:32 | 30.75502 | -87.66731 | 34007 ft | 385 kts | 275° |
| 2026-05-07 19:32 | 30.76087 | -87.71017 | 34009 ft | 385 kts | 275° |
| 2026-05-07 19:33 | 30.77287 | -87.77120 | 34014 ft | 391 kts | 283° |
| 2026-05-07 19:33 | 30.79129 | -87.83057 | 34022 ft | 392 kts | 284° |
| 2026-05-07 19:34 | 30.80987 | -87.89020 | 34025 ft | 392 kts | 284° |
| 2026-05-07 19:34 | 30.82810 | -87.94990 | 34023 ft | 391 kts | 283° |
| 2026-05-07 19:35 | 30.84610 | -88.00970 | 34023 ft | 391 kts | 283° |
| 2026-05-07 19:35 | 30.86393 | -88.06941 | 34024 ft | 391 kts | 283° |
| 2026-05-07 19:36 | 30.88179 | -88.12919 | 34024 ft | 391 kts | 283° |
| 2026-05-07 19:36 | 30.89945 | -88.18852 | 34023 ft | 390 kts | 283° |
| 2026-05-07 19:37 | 30.91726 | -88.24831 | 34023 ft | 390 kts | 283° |
| 2026-05-07 19:37 | 30.93509 | -88.30803 | 34019 ft | 390 kts | 283° |
| 2026-05-07 19:38 | 30.95297 | -88.36769 | 34018 ft | 390 kts | 283° |
| 2026-05-07 19:38 | 30.97073 | -88.42697 | 34018 ft | 389 kts | 283° |
| 2026-05-07 19:39 | 30.98601 | -88.47847 | 34018 ft | 389 kts | 283° |
| 2026-05-07 19:39 | 31.00305 | -88.53617 | 34023 ft | 389 kts | 283° |
| 2026-05-07 19:40 | 31.02062 | -88.59586 | 34018 ft | 389 kts | 283° |
| 2026-05-07 19:40 | 31.03811 | -88.65543 | 34018 ft | 388 kts | 283° |
| 2026-05-07 19:41 | 31.05559 | -88.71503 | 34019 ft | 388 kts | 283° |
| 2026-05-07 19:41 | 31.07302 | -88.77458 | 34021 ft | 388 kts | 283° |
| 2026-05-07 19:42 | 31.09032 | -88.83381 | 34022 ft | 388 kts | 283° |
| 2026-05-07 19:42 | 31.10768 | -88.89334 | 34025 ft | 388 kts | 282° |
| 2026-05-07 19:43 | 31.12502 | -88.95291 | 34027 ft | 387 kts | 282° |
| 2026-05-07 19:43 | 31.14235 | -89.01252 | 34034 ft | 387 kts | 282° |
| 2026-05-07 19:44 | 31.15974 | -89.07213 | 34035 ft | 387 kts | 282° |
| 2026-05-07 19:44 | 31.17704 | -89.13126 | 34037 ft | 387 kts | 283° |
| 2026-05-07 19:45 | 31.19442 | -89.19080 | 34039 ft | 387 kts | 282° |
| 2026-05-07 19:45 | 31.21164 | -89.25035 | 34039 ft | 386 kts | 282° |
| 2026-05-07 19:46 | 31.22876 | -89.30989 | 34040 ft | 386 kts | 282° |
| 2026-05-07 19:46 | 31.24581 | -89.36930 | 34039 ft | 386 kts | 282° |
| 2026-05-07 19:47 | 31.26273 | -89.42836 | 34039 ft | 385 kts | 282° |
| 2026-05-07 19:47 | 31.27969 | -89.48771 | 34045 ft | 385 kts | 282° |
| 2026-05-07 19:48 | 31.29666 | -89.54723 | 34049 ft | 385 kts | 282° |
| 2026-05-07 19:48 | 31.31355 | -89.60658 | 34050 ft | 384 kts | 282° |
| 2026-05-07 19:49 | 31.33028 | -89.66548 | 34051 ft | 384 kts | 282° |
| 2026-05-07 19:49 | 31.34714 | -89.72465 | 34053 ft | 383 kts | 282° |
| 2026-05-07 19:50 | 31.36408 | -89.78384 | 34054 ft | 383 kts | 282° |
| 2026-05-07 19:50 | 31.38097 | -89.84293 | 34056 ft | 382 kts | 282° |
| 2026-05-07 19:51 | 31.39766 | -89.90194 | 34061 ft | 382 kts | 282° |
| 2026-05-07 19:51 | 31.41429 | -89.96097 | 34065 ft | 382 kts | 282° |
| 2026-05-07 19:52 | 31.43085 | -90.01998 | 34070 ft | 381 kts | 281° |
| 2026-05-07 19:52 | 31.44724 | -90.07870 | 34070 ft | 381 kts | 281° |
| 2026-05-07 19:53 | 31.46374 | -90.13775 | 34073 ft | 381 kts | 281° |
| 2026-05-07 19:53 | 31.48021 | -90.19679 | 34077 ft | 381 kts | 281° |
| 2026-05-07 19:54 | 31.49659 | -90.25550 | 34080 ft | 381 kts | 281° |
| 2026-05-07 19:54 | 31.51309 | -90.31454 | 34083 ft | 381 kts | 281° |
| 2026-05-07 19:55 | 31.52963 | -90.37355 | 34086 ft | 381 kts | 281° |
| 2026-05-07 19:55 | 31.54131 | -90.43332 | 34093 ft | 373 kts | 270° |
| 2026-05-07 19:56 | 31.54444 | -90.49389 | 34090 ft | 372 kts | 269° |
| 2026-05-07 19:56 | 31.54736 | -90.54561 | 34087 ft | 373 kts | 270° |
| 2026-05-07 19:57 | 31.55134 | -90.60584 | 34085 ft | 373 kts | 270° |
| 2026-05-07 19:57 | 31.55555 | -90.66652 | 34083 ft | 373 kts | 270° |
| 2026-05-07 19:58 | 31.55981 | -90.72731 | 34082 ft | 374 kts | 270° |
| 2026-05-07 19:58 | 31.56335 | -90.77779 | 34081 ft | 374 kts | 270° |
| 2026-05-07 19:59 | 31.56757 | -90.83852 | 34081 ft | 374 kts | 270° |
| 2026-05-07 19:59 | 31.57172 | -90.89945 | 34081 ft | 374 kts | 270° |
| 2026-05-07 20:00 | 31.57589 | -90.96029 | 34082 ft | 374 kts | 270° |
| 2026-05-07 20:00 | 31.58002 | -91.02081 | 34084 ft | 374 kts | 270° |
| 2026-05-07 20:01 | 31.58416 | -91.08174 | 34085 ft | 374 kts | 270° |
| 2026-05-07 20:01 | 31.58832 | -91.14265 | 34086 ft | 374 kts | 270° |
| 2026-05-07 20:02 | 31.59258 | -91.20361 | 34087 ft | 375 kts | 270° |
| 2026-05-07 20:02 | 31.59675 | -91.26413 | 34089 ft | 375 kts | 270° |
| 2026-05-07 20:03 | 31.60081 | -91.32511 | 34089 ft | 374 kts | 269° |
| 2026-05-07 20:03 | 31.60480 | -91.38601 | 34092 ft | 374 kts | 269° |
| 2026-05-07 20:04 | 31.60876 | -91.44687 | 34091 ft | 374 kts | 269° |
| 2026-05-07 20:04 | 31.61267 | -91.50770 | 34088 ft | 373 kts | 269° |
| 2026-05-07 20:05 | 31.61655 | -91.56842 | 34087 ft | 373 kts | 269° |
| 2026-05-07 20:05 | 31.62038 | -91.62878 | 34086 ft | 373 kts | 269° |
| 2026-05-07 20:06 | 31.62424 | -91.68952 | 34082 ft | 372 kts | 269° |
| 2026-05-07 20:06 | 31.62809 | -91.75015 | 34081 ft | 372 kts | 269° |
| 2026-05-07 20:07 | 31.63197 | -91.81064 | 34079 ft | 372 kts | 269° |
| 2026-05-07 20:07 | 31.63588 | -91.87125 | 34083 ft | 371 kts | 269° |
| 2026-05-07 20:08 | 31.63965 | -91.93167 | 34082 ft | 371 kts | 269° |
| 2026-05-07 20:08 | 31.64335 | -91.99210 | 34078 ft | 371 kts | 269° |
| 2026-05-07 20:09 | 31.64700 | -92.05254 | 34075 ft | 371 kts | 269° |
| 2026-05-07 20:10 | 31.65238 | -92.14277 | 34075 ft | 371 kts | 269° |
| 2026-05-07 20:10 | 31.65595 | -92.20323 | 34074 ft | 371 kts | 269° |
| 2026-05-07 20:11 | 31.65949 | -92.26365 | 34074 ft | 371 kts | 269° |
| 2026-05-07 20:11 | 31.66298 | -92.32398 | 34074 ft | 371 kts | 269° |
| 2026-05-07 20:12 | 31.66647 | -92.38412 | 34074 ft | 371 kts | 269° |
| 2026-05-07 20:12 | 31.66993 | -92.44459 | 34079 ft | 371 kts | 269° |
| 2026-05-07 20:13 | 31.67335 | -92.50507 | 34076 ft | 371 kts | 269° |
| 2026-05-07 20:13 | 31.67676 | -92.56561 | 34077 ft | 371 kts | 269° |
| 2026-05-07 20:14 | 31.68014 | -92.62615 | 34082 ft | 372 kts | 269° |
| 2026-05-07 20:14 | 31.68353 | -92.68677 | 34083 ft | 372 kts | 269° |
| 2026-05-07 20:15 | 31.68693 | -92.74738 | 34084 ft | 372 kts | 269° |
| 2026-05-07 20:15 | 31.69038 | -92.80809 | 34081 ft | 372 kts | 269° |
| 2026-05-07 20:16 | 31.69384 | -92.86887 | 34080 ft | 372 kts | 269° |
| 2026-05-07 20:16 | 31.69715 | -92.92913 | 34079 ft | 372 kts | 269° |
| 2026-05-07 20:17 | 31.70045 | -92.99001 | 34079 ft | 372 kts | 269° |
| 2026-05-07 20:17 | 31.70366 | -93.05065 | 34079 ft | 372 kts | 269° |
| 2026-05-07 20:18 | 31.70681 | -93.11126 | 34083 ft | 372 kts | 269° |
| 2026-05-07 20:18 | 31.70992 | -93.17193 | 34079 ft | 372 kts | 269° |
| 2026-05-07 20:19 | 31.71304 | -93.23252 | 34079 ft | 371 kts | 269° |
| 2026-05-07 20:19 | 31.71614 | -93.29300 | 34078 ft | 371 kts | 269° |
| 2026-05-07 20:20 | 31.71914 | -93.35315 | 34079 ft | 370 kts | 269° |
| 2026-05-07 20:20 | 31.72213 | -93.41347 | 34079 ft | 370 kts | 269° |
| 2026-05-07 20:21 | 31.72512 | -93.47379 | 34080 ft | 369 kts | 269° |
| 2026-05-07 20:21 | 31.72808 | -93.53400 | 34081 ft | 369 kts | 269° |
| 2026-05-07 20:22 | 31.73098 | -93.59411 | 34082 ft | 368 kts | 269° |
| 2026-05-07 20:22 | 31.73382 | -93.65416 | 34080 ft | 368 kts | 269° |
| 2026-05-07 20:23 | 31.73663 | -93.71382 | 34083 ft | 367 kts | 269° |
| 2026-05-07 20:23 | 31.73942 | -93.77375 | 34085 ft | 367 kts | 269° |
| 2026-05-07 20:24 | 31.74312 | -93.83354 | 34089 ft | 369 kts | 273° |
| 2026-05-07 20:24 | 31.75386 | -93.89288 | 34093 ft | 372 kts | 277° |
| 2026-05-07 20:25 | 31.76537 | -93.95212 | 34094 ft | 371 kts | 277° |
| 2026-05-07 20:25 | 31.77648 | -94.01123 | 34095 ft | 371 kts | 276° |
| 2026-05-07 20:26 | 31.78735 | -94.07015 | 34096 ft | 370 kts | 276° |
| 2026-05-07 20:26 | 31.79818 | -94.12934 | 34097 ft | 370 kts | 276° |
| 2026-05-07 20:27 | 31.80899 | -94.18867 | 34096 ft | 370 kts | 276° |
| 2026-05-07 20:27 | 31.81973 | -94.24783 | 34103 ft | 370 kts | 276° |
| 2026-05-07 20:28 | 31.83047 | -94.30706 | 34100 ft | 370 kts | 276° |
| 2026-05-07 20:28 | 31.84119 | -94.36596 | 34099 ft | 371 kts | 276° |
| 2026-05-07 20:29 | 31.85201 | -94.42532 | 34099 ft | 371 kts | 276° |
| 2026-05-07 20:29 | 31.86285 | -94.48476 | 34102 ft | 371 kts | 276° |
| 2026-05-07 20:30 | 31.87359 | -94.54430 | 34098 ft | 372 kts | 276° |
| 2026-05-07 20:30 | 31.88416 | -94.60348 | 34098 ft | 372 kts | 276° |
| 2026-05-07 20:31 | 31.89474 | -94.66312 | 34098 ft | 372 kts | 276° |
| 2026-05-07 20:31 | 31.90535 | -94.72288 | 34098 ft | 373 kts | 276° |
| 2026-05-07 20:32 | 31.91595 | -94.78273 | 34095 ft | 373 kts | 276° |
| 2026-05-07 20:32 | 31.92648 | -94.84261 | 34093 ft | 374 kts | 275° |
| 2026-05-07 20:33 | 31.93700 | -94.90260 | 34093 ft | 374 kts | 275° |
| 2026-05-07 20:33 | 31.94745 | -94.96224 | 34094 ft | 374 kts | 275° |
| 2026-05-07 20:34 | 31.95581 | -95.00998 | 34088 ft | 374 kts | 275° |
| 2026-05-07 20:34 | 31.96636 | -95.07004 | 34083 ft | 375 kts | 275° |
| 2026-05-07 20:35 | 31.97706 | -95.13024 | 34079 ft | 375 kts | 275° |
| 2026-05-07 20:35 | 31.98762 | -95.19039 | 34077 ft | 375 kts | 275° |
| 2026-05-07 20:36 | 31.99807 | -95.25058 | 34077 ft | 375 kts | 275° |
| 2026-05-07 20:36 | 32.00840 | -95.31023 | 34079 ft | 373 kts | 275° |
| 2026-05-07 20:37 | 32.01860 | -95.36996 | 34082 ft | 371 kts | 275° |
| 2026-05-07 20:37 | 32.02876 | -95.42938 | 34085 ft | 370 kts | 275° |
| 2026-05-07 20:38 | 32.03891 | -95.48873 | 34088 ft | 369 kts | 275° |
| 2026-05-07 20:38 | 32.04901 | -95.54799 | 34092 ft | 369 kts | 275° |
| 2026-05-07 20:39 | 32.05911 | -95.60740 | 34094 ft | 369 kts | 275° |
| 2026-05-07 20:39 | 32.06920 | -95.66642 | 34096 ft | 369 kts | 275° |
| 2026-05-07 20:40 | 32.07944 | -95.72576 | 34099 ft | 369 kts | 275° |
| 2026-05-07 20:40 | 32.08959 | -95.78518 | 34104 ft | 370 kts | 275° |
| 2026-05-07 20:41 | 32.09965 | -95.84479 | 34104 ft | 370 kts | 275° |
| 2026-05-07 20:41 | 32.10960 | -95.90410 | 34105 ft | 370 kts | 275° |
| 2026-05-07 20:42 | 32.11956 | -95.96371 | 34105 ft | 370 kts | 275° |
| 2026-05-07 20:42 | 32.12949 | -96.02332 | 34106 ft | 370 kts | 275° |
| 2026-05-07 20:43 | 32.13939 | -96.08296 | 34107 ft | 370 kts | 275° |
| 2026-05-07 20:43 | 32.14926 | -96.14265 | 34107 ft | 370 kts | 275° |
| 2026-05-07 20:44 | 32.15912 | -96.20237 | 34108 ft | 370 kts | 274° |
| 2026-05-07 20:44 | 32.16893 | -96.26200 | 34108 ft | 370 kts | 274° |
| 2026-05-07 20:45 | 32.17871 | -96.32170 | 34108 ft | 370 kts | 274° |
| 2026-05-07 20:45 | 32.18842 | -96.38093 | 34108 ft | 370 kts | 275° |
| 2026-05-07 20:46 | 32.20106 | -96.44033 | 34110 ft | 374 kts | 277° |
| 2026-05-07 20:46 | 32.21443 | -96.49961 | 34109 ft | 374 kts | 277° |
| 2026-05-07 20:47 | 32.22771 | -96.55896 | 34109 ft | 374 kts | 277° |
| 2026-05-07 20:47 | 32.23876 | -96.60839 | 34109 ft | 374 kts | 277° |
| 2026-05-07 20:48 | 32.25197 | -96.66777 | 34109 ft | 374 kts | 277° |
| 2026-05-07 20:48 | 32.26710 | -96.73691 | 34112 ft | 374 kts | 277° |
| 2026-05-07 20:49 | 32.27799 | -96.78677 | 34109 ft | 374 kts | 277° |
| 2026-05-07 20:49 | 32.29092 | -96.84606 | 34109 ft | 374 kts | 277° |
| 2026-05-07 20:50 | 32.30386 | -96.90562 | 34107 ft | 374 kts | 277° |
| 2026-05-07 20:50 | 32.31676 | -96.96530 | 34108 ft | 374 kts | 277° |
| 2026-05-07 20:51 | 32.32972 | -97.02505 | 34108 ft | 375 kts | 276° |
| 2026-05-07 20:51 | 32.34264 | -97.08439 | 34108 ft | 376 kts | 277° |
| 2026-05-07 20:52 | 32.35574 | -97.14429 | 34104 ft | 376 kts | 277° |
| 2026-05-07 20:52 | 32.36875 | -97.20431 | 34095 ft | 377 kts | 276° |
| 2026-05-07 20:53 | 32.38166 | -97.26442 | 34088 ft | 377 kts | 276° |
| 2026-05-07 20:53 | 32.39455 | -97.32461 | 34082 ft | 378 kts | 276° |
| 2026-05-07 20:54 | 32.40740 | -97.38503 | 34077 ft | 379 kts | 276° |
| 2026-05-07 20:54 | 32.42016 | -97.44499 | 34074 ft | 379 kts | 276° |
| 2026-05-07 20:55 | 32.43047 | -97.49348 | 34076 ft | 379 kts | 276° |
| 2026-05-07 20:55 | 32.44328 | -97.55413 | 34081 ft | 380 kts | 276° |
| 2026-05-07 20:56 | 32.45603 | -97.61458 | 34086 ft | 381 kts | 276° |
| 2026-05-07 20:56 | 32.46890 | -97.67548 | 34091 ft | 381 kts | 276° |
| 2026-05-07 20:57 | 32.48180 | -97.73654 | 34095 ft | 382 kts | 276° |
| 2026-05-07 20:57 | 32.49471 | -97.79720 | 34098 ft | 382 kts | 276° |
| 2026-05-07 20:58 | 32.50769 | -97.85839 | 34099 ft | 383 kts | 276° |
| 2026-05-07 20:58 | 32.52051 | -97.91957 | 34101 ft | 383 kts | 276° |
| 2026-05-07 20:59 | 32.53327 | -97.98083 | 34102 ft | 383 kts | 276° |
| 2026-05-07 20:59 | 32.54596 | -98.04208 | 34103 ft | 383 kts | 275° |
| 2026-05-07 21:00 | 32.55862 | -98.10347 | 34103 ft | 383 kts | 276° |
| 2026-05-07 21:00 | 32.57130 | -98.16489 | 34102 ft | 383 kts | 275° |
| 2026-05-07 21:01 | 32.58399 | -98.22626 | 34104 ft | 383 kts | 276° |
| 2026-05-07 21:01 | 32.59659 | -98.28754 | 34104 ft | 383 kts | 276° |
| 2026-05-07 21:02 | 32.60912 | -98.34883 | 34103 ft | 382 kts | 275° |
| 2026-05-07 21:02 | 32.62161 | -98.41004 | 34107 ft | 382 kts | 275° |
| 2026-05-07 21:03 | 32.63401 | -98.47087 | 34107 ft | 382 kts | 275° |
| 2026-05-07 21:03 | 32.64656 | -98.53218 | 34107 ft | 381 kts | 275° |
| 2026-05-07 21:04 | 32.65912 | -98.59327 | 34104 ft | 381 kts | 275° |
| 2026-05-07 21:04 | 32.67164 | -98.65432 | 34102 ft | 381 kts | 276° |
| 2026-05-07 21:05 | 32.68403 | -98.71531 | 34101 ft | 380 kts | 275° |
| 2026-05-07 21:05 | 32.69632 | -98.77629 | 34100 ft | 379 kts | 275° |
| 2026-05-07 21:06 | 32.70853 | -98.83715 | 34099 ft | 379 kts | 275° |
| 2026-05-07 21:06 | 32.72061 | -98.89759 | 34099 ft | 378 kts | 275° |
| 2026-05-07 21:07 | 32.73273 | -98.95840 | 34105 ft | 378 kts | 275° |
| 2026-05-07 21:07 | 32.74483 | -99.01924 | 34099 ft | 378 kts | 275° |
| 2026-05-07 21:08 | 32.75686 | -99.08003 | 34097 ft | 378 kts | 275° |
| 2026-05-07 21:08 | 32.76888 | -99.14080 | 34098 ft | 377 kts | 275° |
| 2026-05-07 21:09 | 32.78086 | -99.20156 | 34095 ft | 377 kts | 275° |
| 2026-05-07 21:09 | 32.79271 | -99.26189 | 34094 ft | 377 kts | 275° |
| 2026-05-07 21:10 | 32.80467 | -99.32280 | 34094 ft | 377 kts | 275° |
| 2026-05-07 21:10 | 32.81655 | -99.38348 | 34095 ft | 377 kts | 275° |
| 2026-05-07 21:11 | 32.82847 | -99.44425 | 34095 ft | 377 kts | 275° |
| 2026-05-07 21:11 | 32.84631 | -99.53494 | 34096 ft | 377 kts | 275° |
| 2026-05-07 21:12 | 32.85830 | -99.59574 | 34097 ft | 377 kts | 275° |
| 2026-05-07 21:12 | 32.87013 | -99.65652 | 34095 ft | 377 kts | 275° |
| 2026-05-07 21:13 | 32.88187 | -99.71728 | 34093 ft | 377 kts | 275° |
| 2026-05-07 21:13 | 32.89355 | -99.77802 | 34092 ft | 377 kts | 275° |
| 2026-05-07 21:14 | 32.90521 | -99.83883 | 34092 ft | 377 kts | 275° |
| 2026-05-07 21:14 | 32.91682 | -99.89961 | 34098 ft | 377 kts | 275° |
| 2026-05-07 21:15 | 32.92842 | -99.96042 | 34082 ft | 377 kts | 275° |
| 2026-05-07 21:15 | 32.93989 | -100.02084 | 34081 ft | 377 kts | 275° |
| 2026-05-07 21:16 | 32.95144 | -100.08179 | 34084 ft | 378 kts | 275° |
| 2026-05-07 21:16 | 32.96298 | -100.14287 | 34086 ft | 378 kts | 275° |
| 2026-05-07 21:17 | 32.97452 | -100.20405 | 34088 ft | 379 kts | 275° |
| 2026-05-07 21:17 | 32.98528 | -100.26538 | 34091 ft | 375 kts | 271° |
| 2026-05-07 21:18 | 32.99131 | -100.32693 | 34094 ft | 374 kts | 269° |
| 2026-05-07 21:18 | 32.99701 | -100.38855 | 34094 ft | 374 kts | 269° |
| 2026-05-07 21:19 | 33.00279 | -100.45007 | 34095 ft | 374 kts | 269° |
| 2026-05-07 21:19 | 33.00854 | -100.51123 | 34101 ft | 374 kts | 269° |
| 2026-05-07 21:20 | 33.01424 | -100.57278 | 34113 ft | 374 kts | 269° |
| 2026-05-07 21:20 | 33.01998 | -100.63451 | 34104 ft | 374 kts | 269° |
| 2026-05-07 21:21 | 33.02571 | -100.69628 | 34102 ft | 375 kts | 269° |
| 2026-05-07 21:21 | 33.03142 | -100.75815 | 34103 ft | 375 kts | 269° |
| 2026-05-07 21:22 | 33.03705 | -100.81957 | 34104 ft | 375 kts | 269° |
| 2026-05-07 21:22 | 33.04271 | -100.88142 | 34105 ft | 376 kts | 269° |
| 2026-05-07 21:23 | 33.04834 | -100.94333 | 34107 ft | 376 kts | 269° |
| 2026-05-07 21:23 | 33.05389 | -101.00525 | 34097 ft | 376 kts | 269° |
| 2026-05-07 21:24 | 33.05942 | -101.06744 | 34095 ft | 377 kts | 269° |
| 2026-05-07 21:24 | 33.06500 | -101.12954 | 34100 ft | 377 kts | 269° |
| 2026-05-07 21:25 | 33.07053 | -101.19184 | 34095 ft | 377 kts | 269° |
| 2026-05-07 21:25 | 33.07602 | -101.25369 | 34094 ft | 378 kts | 269° |
| 2026-05-07 21:26 | 33.08155 | -101.31598 | 34093 ft | 378 kts | 269° |
| 2026-05-07 21:26 | 33.08717 | -101.37843 | 34093 ft | 379 kts | 269° |
| 2026-05-07 21:27 | 33.09274 | -101.44090 | 34095 ft | 379 kts | 269° |
| 2026-05-07 21:27 | 33.09818 | -101.50350 | 34095 ft | 379 kts | 269° |
| 2026-05-07 21:28 | 33.10359 | -101.56612 | 34097 ft | 380 kts | 269° |
| 2026-05-07 21:28 | 33.10894 | -101.62889 | 34106 ft | 380 kts | 269° |
| 2026-05-07 21:29 | 33.11423 | -101.69130 | 34100 ft | 380 kts | 269° |
| 2026-05-07 21:29 | 33.11951 | -101.75403 | 34103 ft | 380 kts | 269° |
| 2026-05-07 21:30 | 33.12476 | -101.81683 | 34099 ft | 380 kts | 269° |
| 2026-05-07 21:30 | 33.12997 | -101.87933 | 34096 ft | 380 kts | 269° |
| 2026-05-07 21:31 | 33.13517 | -101.94220 | 34097 ft | 381 kts | 269° |
| 2026-05-07 21:31 | 33.14035 | -102.00515 | 34099 ft | 381 kts | 269° |
| 2026-05-07 21:32 | 33.14545 | -102.06778 | 34099 ft | 376 kts | 268° |
| 2026-05-07 21:32 | 33.15055 | -102.12990 | 33720 ft | 378 kts | 268° |
| 2026-05-07 21:33 | 33.15305 | -102.16057 | 33216 ft | 375 kts | 269° |
| 2026-05-07 21:33 | 33.15555 | -102.19152 | 32713 ft | 373 kts | 269° |
| 2026-05-07 21:33 | 33.15801 | -102.22240 | 32233 ft | 373 kts | 269° |
| 2026-05-07 21:33 | 33.16052 | -102.25322 | 31742 ft | 373 kts | 269° |
| 2026-05-07 21:34 | 33.16299 | -102.28403 | 31259 ft | 373 kts | 269° |
| 2026-05-07 21:34 | 33.16548 | -102.31490 | 30782 ft | 374 kts | 269° |
| 2026-05-07 21:34 | 33.16802 | -102.34594 | 30313 ft | 378 kts | 269° |
| 2026-05-07 21:34 | 33.17053 | -102.37736 | 29879 ft | 383 kts | 270° |
| 2026-05-07 21:35 | 33.17304 | -102.40913 | 29445 ft | 386 kts | 270° |
| 2026-05-07 21:35 | 33.17467 | -102.43028 | 29136 ft | 387 kts | 270° |
| 2026-05-07 21:35 | 33.17721 | -102.46241 | 28674 ft | 389 kts | 270° |
| 2026-05-07 21:35 | 33.17976 | -102.49458 | 28210 ft | 389 kts | 270° |
| 2026-05-07 21:36 | 33.18234 | -102.52668 | 27748 ft | 389 kts | 271° |
| 2026-05-07 21:36 | 33.18486 | -102.55880 | 27272 ft | 388 kts | 271° |
| 2026-05-07 21:36 | 33.18735 | -102.59094 | 26818 ft | 388 kts | 271° |
| 2026-05-07 21:36 | 33.18979 | -102.62295 | 26363 ft | 387 kts | 271° |
| 2026-05-07 21:37 | 33.19221 | -102.65491 | 25912 ft | 386 kts | 271° |
| 2026-05-07 21:37 | 33.19469 | -102.68680 | 25461 ft | 386 kts | 271° |
| 2026-05-07 21:37 | 33.19718 | -102.71863 | 25010 ft | 385 kts | 271° |
| 2026-05-07 21:37 | 33.19966 | -102.75038 | 24555 ft | 384 kts | 272° |
| 2026-05-07 21:38 | 33.20209 | -102.78172 | 24108 ft | 383 kts | 272° |
| 2026-05-07 21:38 | 33.20449 | -102.81339 | 23657 ft | 382 kts | 272° |
| 2026-05-07 21:38 | 33.20683 | -102.84494 | 23206 ft | 381 kts | 272° |
| 2026-05-07 21:38 | 33.20915 | -102.87647 | 22755 ft | 380 kts | 272° |
| 2026-05-07 21:39 | 33.21148 | -102.90781 | 22305 ft | 379 kts | 272° |
| 2026-05-07 21:39 | 33.21270 | -102.92426 | 22069 ft | 378 kts | 272° |
| 2026-05-07 21:39 | 33.21494 | -102.95426 | 21682 ft | 376 kts | 272° |
| 2026-05-07 21:39 | 33.21727 | -102.98531 | 21308 ft | 375 kts | 272° |
| 2026-05-07 21:40 | 33.21959 | -103.01629 | 20933 ft | 374 kts | 272° |
| 2026-05-07 21:40 | 33.22191 | -103.04720 | 20558 ft | 373 kts | 273° |
| 2026-05-07 21:40 | 33.22422 | -103.07796 | 20183 ft | 371 kts | 273° |
| 2026-05-07 21:40 | 33.22647 | -103.10862 | 19807 ft | 370 kts | 273° |
| 2026-05-07 21:41 | 33.22875 | -103.13931 | 19430 ft | 369 kts | 273° |
| 2026-05-07 21:41 | 33.23098 | -103.16942 | 19059 ft | 368 kts | 273° |
| 2026-05-07 21:41 | 33.23321 | -103.19985 | 18683 ft | 367 kts | 273° |
| 2026-05-07 21:41 | 33.23540 | -103.23027 | 18310 ft | 365 kts | 273° |
| 2026-05-07 21:42 | 33.23753 | -103.26052 | 17936 ft | 365 kts | 273° |
| 2026-05-07 21:42 | 33.23961 | -103.29066 | 17573 ft | 363 kts | 273° |
| 2026-05-07 21:42 | 33.24169 | -103.32069 | 17263 ft | 362 kts | 273° |
| 2026-05-07 21:42 | 33.24377 | -103.35057 | 16961 ft | 360 kts | 273° |
| 2026-05-07 21:43 | 33.24585 | -103.38002 | 16667 ft | 359 kts | 273° |
| 2026-05-07 21:43 | 33.24793 | -103.40974 | 16368 ft | 358 kts | 273° |
| 2026-05-07 21:43 | 33.25002 | -103.43938 | 16068 ft | 357 kts | 273° |
| 2026-05-07 21:43 | 33.25207 | -103.46887 | 15770 ft | 356 kts | 273° |
| 2026-05-07 21:44 | 33.25412 | -103.49827 | 15469 ft | 354 kts | 273° |
| 2026-05-07 21:44 | 33.25616 | -103.52754 | 15166 ft | 352 kts | 273° |
| 2026-05-07 21:44 | 33.25819 | -103.55668 | 14864 ft | 351 kts | 273° |
| 2026-05-07 21:44 | 33.26021 | -103.58567 | 14570 ft | 350 kts | 273° |
| 2026-05-07 21:45 | 33.26224 | -103.61462 | 14272 ft | 348 kts | 273° |
| 2026-05-07 21:45 | 33.26425 | -103.64338 | 13973 ft | 347 kts | 273° |
| 2026-05-07 21:45 | 33.26625 | -103.67202 | 13677 ft | 345 kts | 273° |
| 2026-05-07 21:45 | 33.26823 | -103.70055 | 13376 ft | 344 kts | 273° |
| 2026-05-07 21:46 | 33.27019 | -103.72890 | 13074 ft | 342 kts | 273° |
| 2026-05-07 21:46 | 33.27217 | -103.75715 | 12774 ft | 340 kts | 273° |
| 2026-05-07 21:46 | 33.27344 | -103.77538 | 12580 ft | 339 kts | 273° |
| 2026-05-07 21:46 | 33.27539 | -103.80305 | 12286 ft | 338 kts | 273° |
| 2026-05-07 21:47 | 33.27738 | -103.83087 | 12107 ft | 335 kts | 274° |
| 2026-05-07 21:47 | 33.28247 | -103.85799 | 12015 ft | 338 kts | 287° |
| 2026-05-07 21:47 | 33.29181 | -103.88346 | 12013 ft | 328 kts | 292° |
| 2026-05-07 21:47 | 33.30134 | -103.90715 | 11996 ft | 304 kts | 293° |
| 2026-05-07 21:48 | 33.31024 | -103.92927 | 11996 ft | 288 kts | 292° |
| 2026-05-07 21:48 | 33.31876 | -103.95061 | 11995 ft | 282 kts | 292° |
| 2026-05-07 21:48 | 33.32716 | -103.97172 | 11991 ft | 280 kts | 292° |
| 2026-05-07 21:48 | 33.33546 | -103.99265 | 11989 ft | 278 kts | 292° |
| 2026-05-07 21:49 | 33.34376 | -104.01353 | 11989 ft | 277 kts | 292° |
| 2026-05-07 21:49 | 33.35201 | -104.03434 | 11989 ft | 277 kts | 292° |
| 2026-05-07 21:49 | 33.36024 | -104.05514 | 11989 ft | 277 kts | 292° |
| 2026-05-07 21:49 | 33.36851 | -104.07603 | 11873 ft | 277 kts | 292° |
| 2026-05-07 21:50 | 33.37673 | -104.09683 | 11648 ft | 276 kts | 292° |
| 2026-05-07 21:50 | 33.38489 | -104.11754 | 11398 ft | 274 kts | 292° |
| 2026-05-07 21:50 | 33.39300 | -104.13819 | 11147 ft | 273 kts | 292° |
| 2026-05-07 21:50 | 33.40104 | -104.15874 | 10904 ft | 273 kts | 292° |
| 2026-05-07 21:51 | 33.40904 | -104.17931 | 10644 ft | 272 kts | 292° |
| 2026-05-07 21:51 | 33.41698 | -104.19986 | 10394 ft | 272 kts | 292° |
| 2026-05-07 21:51 | 33.42481 | -104.22011 | 10148 ft | 272 kts | 293° |
| 2026-05-07 21:51 | 33.43291 | -104.24088 | 9896 ft | 272 kts | 293° |
| 2026-05-07 21:52 | 33.44094 | -104.26143 | 9642 ft | 272 kts | 293° |
| 2026-05-07 21:52 | 33.44886 | -104.28169 | 9395 ft | 272 kts | 293° |
| 2026-05-07 21:52 | 33.45692 | -104.30226 | 9144 ft | 273 kts | 293° |
| 2026-05-07 21:52 | 33.46475 | -104.32292 | 8891 ft | 272 kts | 291° |
| 2026-05-07 21:53 | 33.47121 | -104.34417 | 8645 ft | 269 kts | 288° |
| 2026-05-07 21:53 | 33.47727 | -104.36504 | 8390 ft | 261 kts | 288° |
| 2026-05-07 21:53 | 33.48308 | -104.38497 | 8131 ft | 246 kts | 288° |
| 2026-05-07 21:53 | 33.48865 | -104.40402 | 7882 ft | 238 kts | 288° |
| 2026-05-07 21:54 | 33.49401 | -104.42247 | 7647 ft | 230 kts | 287° |
| 2026-05-07 21:54 | 33.49855 | -104.44044 | 7368 ft | 221 kts | 280° |
| 2026-05-07 21:54 | 33.49858 | -104.45873 | 7135 ft | 220 kts | 265° |
| 2026-05-07 21:54 | 33.49799 | -104.47726 | 6896 ft | 223 kts | 267° |
| 2026-05-07 21:55 | 33.49786 | -104.49553 | 6641 ft | 219 kts | 268° |
| 2026-05-07 21:55 | 33.49543 | -104.51306 | 6339 ft | 212 kts | 249° |
| 2026-05-07 21:55 | 33.48760 | -104.52772 | 6127 ft | 209 kts | 231° |
| 2026-05-07 21:55 | 33.47722 | -104.53901 | 5898 ft | 192 kts | 216° |
| 2026-05-07 21:56 | 33.46470 | -104.54272 | 5644 ft | 188 kts | 185° |
| 2026-05-07 21:56 | 33.45145 | -104.54222 | 5498 ft | 189 kts | 178° |
| 2026-05-07 21:56 | 33.43843 | -104.54147 | 5368 ft | 186 kts | 178° |
| 2026-05-07 21:56 | 33.42560 | -104.54074 | 5307 ft | 183 kts | 178° |
| 2026-05-07 21:57 | 33.41288 | -104.54004 | 5299 ft | 183 kts | 178° |
| 2026-05-07 21:57 | 33.40087 | -104.53947 | 5250 ft | 161 kts | 179° |
| 2026-05-07 21:57 | 33.38976 | -104.53944 | 5192 ft | 164 kts | 180° |
| 2026-05-07 21:57 | 33.37824 | -104.53944 | 5094 ft | 165 kts | 180° |
| 2026-05-07 21:58 | 33.36672 | -104.53956 | 4848 ft | 167 kts | 179° |
| 2026-05-07 21:58 | 33.35504 | -104.53947 | 4577 ft | 169 kts | 178° |
| 2026-05-07 21:58 | 33.34378 | -104.53929 | 4287 ft | 158 kts | 178° |
| 2026-05-07 21:58 | 33.33273 | -104.53922 | 4050 ft | 155 kts | 179° |
| 2026-05-07 21:59 | 33.32229 | -104.53922 | 3862 ft | 148 kts | 179° |
| 2026-05-07 21:59 | 33.31249 | -104.53923 | 3696 ft | 130 kts | 179° |
| 2026-05-07 21:59 | 33.30526 | -104.53923 | 3683 ft | 70 kts | 185° |
| 2026-05-07 21:59 | 33.30231 | -104.53931 | 3683 ft | 18 kts | 179° |
| 2026-05-07 22:00 | 33.30162 | -104.53928 | 3683 ft | 6 kts | 178° |
| 2026-05-07 22:00 | 33.30132 | -104.53908 | 3683 ft | 6 kts | 119° |
| 2026-05-07 22:00 | 33.30128 | -104.53834 | 3683 ft | 11 kts | 89° |
| 2026-05-07 22:00 | 33.30133 | -104.53743 | 3683 ft | 9 kts | 61° |
| 2026-05-07 22:01 | 33.30190 | -104.53712 | 3683 ft | 10 kts | 32° |
| 2026-05-07 22:01 | 33.30246 | -104.53645 | 3683 ft | 13 kts | 47° |
| 2026-05-07 22:01 | 33.30311 | -104.53564 | 3683 ft | 14 kts | 46° |
| 2026-05-07 22:01 | 33.30381 | -104.53477 | 3683 ft | 15 kts | 46° |
| 2026-05-07 22:02 | 33.30447 | -104.53393 | 3683 ft | 13 kts | 47° |
| 2026-05-07 22:02 | 33.30510 | -104.53308 | 3683 ft | 14 kts | 48° |
| 2026-05-07 22:02 | 33.30576 | -104.53224 | 3683 ft | 13 kts | 46° |
| 2026-05-07 22:02 | 33.30641 | -104.53142 | 3683 ft | 13 kts | 47° |
| 2026-05-07 22:03 | 33.30651 | -104.53090 | 3683 ft | 5 kts | 128° |
| 2026-05-07 22:03 | 33.30625 | -104.53059 | 3683 ft | 6 kts | 137° |
| 2026-05-07 22:03 | 33.30602 | -104.53014 | 3683 ft | 6 kts | 78° |
| 2026-05-07 22:03 | 33.30632 | -104.52976 | 3683 ft | 8 kts | 42° |
| 2026-05-07 22:04 | 33.30659 | -104.52946 | 3683 ft | 0 kts | 43° |